createdAt,value
2018-12-24T00:00:02.574Z,5.0
2018-12-24T00:05:03.146Z,5.0
2018-12-24T00:10:02.694Z,5.0
2018-12-24T00:15:03.230Z,5.0
2018-12-24T00:20:02.758Z,4.8
2018-12-24T00:25:02.342Z,5.0
2018-12-24T00:30:02.874Z,5.0
2018-12-24T00:35:02.377Z,5.0
2018-12-24T00:40:02.986Z,5.0
2018-12-24T00:45:02.709Z,5.0
2018-12-24T00:50:03.151Z,5.0
2018-12-24T00:55:02.576Z,5.3
2018-12-24T01:00:02.970Z,5.0
2018-12-24T01:05:03.024Z,5.0
2018-12-24T01:10:02.560Z,5.0
2018-12-24T01:15:03.010Z,5.0
2018-12-24T01:20:02.492Z,5.0
2018-12-24T01:25:02.932Z,5.0
2018-12-24T01:30:02.363Z,5.0
2018-12-24T01:35:02.911Z,5.0
2018-12-24T01:40:02.435Z,5.0
2018-12-24T01:45:02.908Z,5.0
2018-12-24T01:50:02.432Z,5.0
2018-12-24T01:55:02.974Z,5.0
2018-12-24T02:00:02.418Z,5.0
2018-12-24T02:05:02.981Z,5.0
2018-12-24T02:10:02.531Z,5.0
2018-12-24T02:15:02.918Z,5.0
2018-12-24T02:20:02.441Z,5.0
2018-12-24T02:25:03.101Z,5.0
2018-12-24T02:30:02.547Z,5.0
2018-12-24T02:35:03.047Z,5.0
2018-12-24T02:40:02.769Z,5.0
2018-12-24T02:45:03.302Z,5.0
2018-12-24T02:50:02.798Z,5.0
2018-12-24T02:55:02.374Z,5.0
2018-12-24T03:00:02.840Z,5.0
2018-12-24T03:05:02.543Z,4.5
2018-12-24T03:10:03.041Z,4.5
2018-12-24T03:15:02.558Z,4.5
2018-12-24T03:20:02.996Z,4.5
2018-12-24T03:25:02.534Z,4.5
2018-12-24T03:30:03.067Z,4.5
2018-12-24T03:35:02.592Z,4.5
2018-12-24T03:40:03.046Z,4.3
2018-12-24T03:45:02.581Z,4.3
2018-12-24T03:50:03.169Z,4.3
2018-12-24T03:55:02.560Z,4.5
2018-12-24T04:00:03.401Z,4.5
2018-12-24T04:05:02.874Z,4.5
2018-12-24T04:10:02.584Z,4.5
2018-12-24T04:15:03.096Z,4.5
2018-12-24T04:20:02.558Z,4.5
2018-12-24T04:25:03.017Z,4.8
2018-12-24T04:30:02.604Z,4.5
2018-12-24T04:35:03.125Z,4.5
2018-12-24T04:40:02.750Z,4.5
2018-12-24T04:45:03.229Z,4.5
2018-12-24T04:50:02.742Z,4.8
2018-12-24T04:55:03.220Z,4.8
2018-12-24T05:00:02.684Z,4.8
2018-12-24T05:05:03.166Z,4.8
2018-12-24T05:10:02.630Z,4.8
2018-12-24T05:15:03.179Z,4.8
2018-12-24T05:20:02.630Z,4.8
2018-12-24T05:25:03.158Z,4.8
2018-12-24T05:30:03.056Z,4.8
2018-12-24T05:35:02.521Z,4.8
2018-12-24T05:40:02.973Z,4.8
2018-12-24T05:45:02.472Z,4.8
2018-12-24T05:50:02.971Z,4.8
2018-12-24T05:55:02.481Z,4.8
2018-12-24T06:00:03.022Z,4.8
2018-12-24T06:05:02.562Z,4.8
2018-12-24T06:10:03.033Z,4.8
2018-12-24T06:15:02.482Z,4.8
2018-12-24T06:20:02.984Z,4.8
2018-12-24T06:25:02.460Z,4.8
2018-12-24T06:30:02.946Z,4.8
2018-12-24T06:35:02.435Z,4.8
2018-12-24T06:40:02.971Z,4.8
2018-12-24T06:45:02.456Z,4.8
2018-12-24T06:50:02.915Z,4.8
2018-12-24T06:55:02.359Z,5.0
2018-12-24T07:00:02.798Z,5.0
2018-12-24T07:05:02.442Z,5.0
2018-12-24T07:10:02.981Z,5.3
2018-12-24T07:15:02.441Z,5.3
2018-12-24T07:20:02.965Z,5.4
2018-12-24T07:25:02.461Z,5.4
2018-12-24T07:30:02.905Z,5.4
2018-12-24T07:35:02.357Z,5.4
2018-12-24T07:40:02.955Z,5.4
2018-12-24T07:45:02.434Z,5.5
2018-12-24T07:50:02.922Z,5.5
2018-12-24T07:55:02.453Z,5.4
2018-12-24T08:00:03.116Z,5.4
2018-12-24T08:05:02.593Z,5.4
2018-12-24T08:10:03.202Z,5.4
2018-12-24T08:15:02.709Z,5.3
2018-12-24T08:20:03.182Z,5.0
2018-12-24T08:25:02.667Z,4.8
2018-12-24T08:30:03.205Z,4.5
2018-12-24T08:35:02.695Z,4.5
2018-12-24T08:40:02.298Z,4.5
2018-12-24T08:45:02.730Z,4.5
2018-12-24T08:50:03.170Z,4.5
2018-12-24T08:55:02.641Z,4.5
2018-12-24T09:00:03.171Z,4.8
2018-12-24T09:05:02.728Z,5.3
2018-12-24T09:10:03.273Z,5.5
2018-12-24T09:15:02.878Z,6.0
2018-12-24T09:20:02.382Z,5.9
2018-12-24T09:25:02.950Z,6.1
2018-12-24T09:30:02.436Z,6.6
2018-12-24T09:35:03.046Z,7.0
2018-12-24T09:40:02.542Z,7.1
2018-12-24T09:45:03.098Z,7.0
2018-12-24T09:50:02.686Z,7.0
2018-12-24T09:55:03.191Z,7.6
2018-12-24T10:00:02.650Z,7.9
2018-12-24T10:05:03.181Z,7.5
2018-12-24T10:10:02.723Z,8.0
2018-12-24T10:15:07.688Z,8.0
2018-12-24T10:20:02.611Z,7.9
2018-12-24T10:25:03.052Z,7.9
2018-12-24T10:30:02.607Z,8.3
2018-12-24T10:35:03.163Z,8.0
2018-12-24T10:40:02.748Z,7.9
2018-12-24T10:45:03.238Z,8.5
2018-12-24T10:50:02.821Z,8.3
2018-12-24T10:55:02.315Z,10.0
2018-12-24T11:00:02.786Z,9.8
2018-12-24T11:05:02.389Z,9.5
2018-12-24T11:10:03.232Z,8.8
2018-12-24T11:15:02.790Z,9.1
2018-12-24T11:20:02.343Z,9.1
2018-12-24T11:25:02.811Z,8.8
2018-12-24T11:30:03.277Z,8.6
2018-12-24T11:35:02.801Z,8.8
2018-12-24T11:40:02.394Z,8.5
2018-12-24T11:45:03.307Z,8.3
2018-12-24T11:50:02.828Z,8.5
2018-12-24T11:55:02.323Z,8.3
2018-12-24T12:00:02.727Z,7.1
2018-12-24T12:05:03.194Z,7.0
2018-12-24T12:10:02.766Z,6.6
2018-12-24T12:15:02.292Z,6.9
2018-12-24T12:20:03.009Z,6.6
2018-12-24T12:25:02.538Z,6.5
2018-12-24T12:30:03.054Z,6.5
2018-12-24T12:35:02.579Z,6.6
2018-12-24T12:40:03.250Z,6.9
2018-12-24T12:45:02.775Z,6.6
2018-12-24T12:50:03.192Z,6.5
2018-12-24T12:55:02.696Z,6.5
2018-12-24T13:00:03.144Z,6.4
2018-12-24T13:05:02.697Z,6.1
2018-12-24T13:10:04.539Z,6.4
2018-12-24T13:15:03.144Z,6.4
2018-12-24T13:20:02.695Z,6.1
2018-12-24T13:25:03.231Z,6.1
2018-12-24T13:30:02.705Z,6.1
2018-12-24T13:35:03.284Z,6.1
2018-12-24T13:40:02.848Z,6.1
2018-12-24T13:45:02.364Z,6.1
2018-12-24T13:50:02.899Z,6.4
2018-12-24T13:55:02.461Z,6.1
2018-12-24T14:00:03.030Z,6.0
2018-12-24T14:05:02.625Z,6.1
2018-12-24T14:10:03.191Z,6.1
2018-12-24T14:15:02.668Z,6.1
2018-12-24T14:20:03.219Z,6.0
2018-12-24T14:25:02.785Z,6.0
2018-12-24T14:30:03.277Z,6.0
2018-12-24T14:35:02.817Z,6.0
2018-12-24T14:40:02.307Z,5.9
2018-12-24T14:45:02.874Z,5.9
2018-12-24T14:50:02.422Z,5.9
2018-12-24T14:55:03.173Z,5.9
2018-12-24T15:00:02.699Z,5.8
2018-12-24T15:05:03.520Z,5.8
2018-12-24T15:10:02.989Z,5.5
2018-12-24T15:15:02.550Z,5.4
2018-12-24T15:20:02.993Z,5.0
2018-12-24T15:25:02.503Z,5.0
2018-12-24T15:30:02.982Z,4.8
2018-12-24T15:35:02.514Z,4.8
2018-12-24T15:40:03.073Z,4.8
2018-12-24T15:45:02.578Z,4.0
2018-12-24T15:50:03.153Z,4.0
2018-12-24T15:55:02.671Z,4.0
2018-12-24T16:00:03.161Z,3.7
2018-12-24T16:05:02.795Z,3.5
2018-12-24T16:10:02.392Z,3.5
2018-12-24T16:15:02.877Z,3.2
2018-12-24T16:20:02.391Z,2.7
2018-12-24T16:25:02.914Z,2.7
2018-12-24T16:30:02.357Z,2.7
2018-12-24T16:35:02.988Z,2.7
2018-12-24T16:40:02.597Z,2.7
2018-12-24T16:45:03.429Z,2.7
2018-12-24T16:50:02.921Z,2.5
2018-12-24T16:55:02.480Z,2.4
2018-12-24T17:00:02.933Z,2.4
2018-12-24T17:05:02.438Z,2.2
2018-12-24T17:10:02.957Z,2.0
2018-12-24T17:15:02.463Z,2.0
2018-12-24T17:20:02.994Z,1.8
2018-12-24T17:25:02.444Z,1.7
2018-12-24T17:30:03.017Z,1.3
2018-12-24T17:35:02.497Z,1.3
2018-12-24T17:40:03.027Z,1.6
2018-12-24T17:45:04.088Z,1.8
2018-12-24T17:50:02.752Z,1.6
2018-12-24T17:55:02.355Z,1.3
2018-12-24T18:00:02.918Z,1.3
2018-12-24T18:05:02.506Z,1.3
2018-12-24T18:10:03.044Z,1.6
2018-12-24T18:15:02.598Z,1.8
2018-12-24T18:20:03.116Z,2.2
2018-12-24T18:25:02.605Z,2.5
2018-12-24T18:30:03.137Z,2.5
2018-12-24T18:35:02.821Z,2.5
2018-12-24T18:40:02.399Z,2.9
2018-12-24T18:45:02.968Z,2.7
2018-12-24T18:50:02.506Z,2.9
2018-12-24T18:55:03.012Z,3.0
2018-12-24T19:00:02.526Z,3.2
2018-12-24T19:05:03.360Z,3.2
2018-12-24T19:10:02.901Z,3.0
2018-12-24T19:15:02.496Z,3.0
2018-12-24T19:20:03.025Z,3.2
2018-12-24T19:25:02.434Z,3.2
2018-12-24T19:30:02.822Z,3.2
2018-12-24T19:35:02.308Z,3.7
2018-12-24T19:40:02.896Z,3.5
2018-12-24T19:45:02.382Z,3.5
2018-12-24T19:50:02.960Z,3.5
2018-12-24T19:55:02.541Z,3.5
2018-12-24T20:00:02.990Z,3.5
2018-12-24T20:05:02.484Z,3.7
2018-12-24T20:10:03.015Z,3.7
2018-12-24T20:15:02.579Z,3.7
2018-12-24T20:20:03.091Z,3.7
2018-12-24T20:25:02.649Z,3.7
2018-12-24T20:30:03.149Z,4.0
2018-12-24T20:35:02.640Z,3.7
2018-12-24T20:40:03.195Z,4.0
2018-12-24T20:45:02.757Z,4.0
2018-12-24T20:50:02.303Z,3.7
2018-12-24T20:55:02.850Z,3.7
2018-12-24T21:00:02.739Z,3.7
2018-12-24T21:05:02.536Z,4.0
2018-12-24T21:10:03.250Z,4.0
2018-12-24T21:15:02.797Z,3.7
2018-12-24T21:20:02.364Z,4.0
2018-12-24T21:25:02.827Z,4.0
2018-12-24T21:30:02.416Z,4.0
2018-12-24T21:35:02.381Z,4.0
2018-12-24T21:40:02.930Z,4.0
2018-12-24T21:45:02.509Z,4.0
2018-12-24T21:50:03.039Z,4.3
2018-12-24T21:55:02.584Z,4.0
2018-12-24T22:00:03.070Z,4.0
2018-12-24T22:05:02.691Z,4.3
2018-12-24T22:10:02.317Z,4.3
2018-12-24T22:15:02.879Z,4.3
2018-12-24T22:20:02.348Z,4.3
2018-12-24T22:25:02.845Z,4.0
2018-12-24T22:30:02.565Z,4.0
2018-12-24T22:35:03.150Z,4.0
2018-12-24T22:40:02.662Z,4.0
2018-12-24T22:45:03.151Z,4.0
2018-12-24T22:50:02.586Z,4.0
2018-12-24T22:55:03.057Z,4.0
2018-12-24T23:00:02.541Z,4.0
2018-12-24T23:05:02.397Z,4.0
2018-12-24T23:10:02.963Z,4.0
2018-12-24T23:15:02.424Z,4.0
2018-12-24T23:20:03.520Z,4.0
2018-12-24T23:25:03.065Z,4.3
2018-12-24T23:30:02.625Z,4.0
2018-12-24T23:35:03.189Z,4.0
2018-12-24T23:40:02.712Z,4.3
2018-12-24T23:45:03.180Z,4.3
2018-12-24T23:50:02.800Z,4.3
2018-12-24T23:55:03.271Z,4.3
